createdAt,value
2023-02-12T00:01:29.221Z,7.80
2023-02-12T00:04:00.030Z,7.90
2023-02-12T00:06:29.237Z,7.80
2023-02-12T00:08:58.307Z,7.80
2023-02-12T00:11:28.245Z,7.80
2023-02-12T00:13:56.427Z,7.80
2023-02-12T00:16:26.790Z,7.80
2023-02-12T00:18:56.645Z,7.70
2023-02-12T00:21:24.342Z,7.80
2023-02-12T00:23:51.509Z,7.70
2023-02-12T00:26:20.192Z,7.70
2023-02-12T00:28:50.001Z,7.70
2023-02-12T00:31:23.790Z,7.70
2023-02-12T00:33:51.273Z,7.60
2023-02-12T00:36:21.740Z,7.60
2023-02-12T00:38:52.266Z,7.60
2023-02-12T00:41:19.498Z,7.60
2023-02-12T00:43:47.345Z,7.60
2023-02-12T00:46:14.573Z,7.70
2023-02-12T00:48:41.747Z,7.60
2023-02-12T00:51:09.257Z,7.60
2023-02-12T00:53:37.257Z,7.70
2023-02-12T00:56:04.953Z,7.60
2023-02-12T00:58:32.034Z,7.50
2023-02-12T01:01:00.059Z,7.50
2023-02-12T01:03:27.274Z,7.50
2023-02-12T01:05:54.814Z,7.50
2023-02-12T01:08:22.075Z,7.50
2023-02-12T01:11:01.921Z,7.50
2023-02-12T01:13:30.598Z,7.50
2023-02-12T01:16:08.978Z,7.50
2023-02-12T01:18:37.522Z,7.50
2023-02-12T01:21:21.452Z,7.50
2023-02-12T01:23:49.169Z,7.50
2023-02-12T01:26:18.417Z,7.50
2023-02-12T01:28:50.594Z,7.50
2023-02-12T01:31:22.006Z,7.50
2023-02-12T01:33:53.540Z,7.50
2023-02-12T01:36:20.977Z,7.50
2023-02-12T01:38:49.743Z,7.50
2023-02-12T01:41:23.821Z,7.50
2023-02-12T01:44:15.731Z,7.50
2023-02-12T01:46:47.847Z,7.50
2023-02-12T01:49:45.338Z,7.50
2023-02-12T01:52:33.821Z,7.40
2023-02-12T01:55:07.700Z,7.40
2023-02-12T01:57:43.822Z,7.30
2023-02-12T02:00:15.186Z,7.30
2023-02-12T02:03:02.087Z,7.30
2023-02-12T02:05:42.753Z,7.40
2023-02-12T02:08:10.542Z,7.40
2023-02-12T02:10:37.660Z,7.40
2023-02-12T02:13:23.964Z,7.40
2023-02-12T02:15:57.757Z,7.40
2023-02-12T02:18:35.062Z,7.40
2023-02-12T02:21:17.242Z,7.40
2023-02-12T02:24:11.716Z,7.40
2023-02-12T02:27:11.232Z,7.40
2023-02-12T02:29:47.207Z,7.40
2023-02-12T02:32:27.182Z,7.40
2023-02-12T02:35:15.924Z,7.40
2023-02-12T02:38:16.410Z,7.40
2023-02-12T02:41:02.568Z,7.40
2023-02-12T02:43:37.048Z,7.40
2023-02-12T02:46:25.341Z,7.40
2023-02-12T02:48:59.674Z,7.40
2023-02-12T02:51:33.301Z,7.40
2023-02-12T02:54:28.057Z,7.40
2023-02-12T02:57:01.190Z,7.40
2023-02-12T02:59:34.245Z,7.40
2023-02-12T03:02:13.934Z,7.30
2023-02-12T03:04:49.922Z,7.40
2023-02-12T03:07:29.716Z,7.30
2023-02-12T03:10:07.981Z,7.30
2023-02-12T03:12:49.970Z,7.30
2023-02-12T03:15:24.313Z,7.30
2023-02-12T03:17:51.795Z,7.30
2023-02-12T03:20:28.399Z,7.30
2023-02-12T03:23:12.492Z,7.30
2023-02-12T03:25:57.103Z,7.30
2023-02-12T03:28:31.544Z,7.30
2023-02-12T03:31:29.515Z,7.30
2023-02-12T03:34:25.550Z,7.30
2023-02-12T03:37:03.356Z,7.30
2023-02-12T03:39:52.296Z,7.30
2023-02-12T03:42:28.021Z,7.30
2023-02-12T03:45:05.107Z,7.20
2023-02-12T03:47:40.907Z,7.20
2023-02-12T03:50:11.018Z,7.20
2023-02-12T03:52:38.167Z,7.20
2023-02-12T03:55:06.039Z,7.20
2023-02-12T03:57:38.405Z,7.20
2023-02-12T04:00:11.599Z,7.20
2023-02-12T04:02:42.012Z,7.20
2023-02-12T04:05:20.764Z,7.20
2023-02-12T04:07:49.061Z,7.20
2023-02-12T04:10:17.106Z,7.20
2023-02-12T04:12:59.558Z,7.20
2023-02-12T04:15:51.851Z,7.20
2023-02-12T04:18:33.666Z,7.20
2023-02-12T04:21:07.797Z,7.20
2023-02-12T04:24:13.966Z,7.20
2023-02-12T04:26:47.087Z,7.20
2023-02-12T04:29:25.980Z,7.20
2023-02-12T04:32:03.270Z,7.20
2023-02-12T04:34:43.127Z,7.20
2023-02-12T04:37:33.099Z,7.20
2023-02-12T04:40:02.913Z,7.20
2023-02-12T04:42:30.133Z,7.20
2023-02-12T04:44:57.228Z,7.10
2023-02-12T04:47:24.278Z,7.10
2023-02-12T04:49:51.330Z,7.10
2023-02-12T04:52:18.358Z,7.10
2023-02-12T04:54:45.449Z,7.10
2023-02-12T04:57:12.490Z,7.10
2023-02-12T04:59:39.513Z,7.10
2023-02-12T05:02:06.530Z,7.10
2023-02-12T05:04:33.544Z,7.10
2023-02-12T05:07:00.566Z,7.00
2023-02-12T05:09:27.597Z,7.00
2023-02-12T05:11:54.551Z,7.00
2023-02-12T05:14:24.806Z,7.00
2023-02-12T05:16:51.852Z,7.00
2023-02-12T05:19:18.848Z,7.00
2023-02-12T05:21:45.871Z,7.00
2023-02-12T05:24:12.875Z,7.00
2023-02-12T05:26:39.847Z,7.00
2023-02-12T05:29:06.858Z,7.00
2023-02-12T05:31:34.293Z,7.00
2023-02-12T05:34:01.736Z,7.00
2023-02-12T05:36:28.836Z,7.00
2023-02-12T05:38:59.910Z,7.00
2023-02-12T05:41:27.574Z,7.00
2023-02-12T05:43:54.603Z,7.00
2023-02-12T05:46:22.531Z,7.00
2023-02-12T05:48:50.031Z,7.00
2023-02-12T05:51:21.845Z,6.90
2023-02-12T05:53:49.723Z,6.90
2023-02-12T05:56:19.696Z,6.90
2023-02-12T05:58:48.849Z,6.90
2023-02-12T06:01:22.965Z,7.00
2023-02-12T06:03:50.004Z,7.00
2023-02-12T06:06:17.244Z,7.00
2023-02-12T06:08:44.339Z,7.00
2023-02-12T06:11:13.981Z,7.00
2023-02-12T06:13:44.428Z,7.00
2023-02-12T06:16:28.450Z,7.00
2023-02-12T06:18:56.548Z,7.00
2023-02-12T06:21:26.598Z,7.00
2023-02-12T06:23:53.940Z,7.00
2023-02-12T06:26:22.403Z,7.00
2023-02-12T06:28:51.194Z,7.00
2023-02-12T06:31:28.250Z,7.00
2023-02-12T06:33:56.487Z,7.00
2023-02-12T06:36:24.702Z,6.90
2023-02-12T06:38:52.361Z,6.90
2023-02-12T06:41:20.425Z,6.90
2023-02-12T06:43:47.738Z,7.00
2023-02-12T06:46:15.526Z,6.90
2023-02-12T06:48:43.176Z,6.90
2023-02-12T06:51:15.455Z,6.90
2023-02-12T06:53:43.351Z,6.90
2023-02-12T06:56:13.141Z,6.90
2023-02-12T06:58:45.728Z,6.90
2023-02-12T07:01:19.182Z,6.90
2023-02-12T07:03:56.055Z,6.90
2023-02-12T07:06:24.330Z,6.90
2023-02-12T07:08:54.637Z,6.90
2023-02-12T07:11:30.628Z,6.90
2023-02-12T07:14:00.428Z,6.80
2023-02-12T07:16:28.122Z,6.90
2023-02-12T07:18:55.569Z,6.90
2023-02-12T07:21:25.734Z,6.90
2023-02-12T07:23:53.556Z,6.90
2023-02-12T07:26:21.647Z,6.90
2023-02-12T07:28:49.724Z,6.90
2023-02-12T07:31:20.341Z,6.90
2023-02-12T07:33:58.541Z,6.90
2023-02-12T07:36:30.439Z,7.00
2023-02-12T07:38:57.416Z,7.00
2023-02-12T07:41:32.201Z,7.00
2023-02-12T07:44:07.307Z,7.00
2023-02-12T07:46:38.116Z,7.00
2023-02-12T07:49:17.154Z,7.00
2023-02-12T07:51:47.853Z,7.00
2023-02-12T07:54:18.690Z,7.00
2023-02-12T07:56:51.115Z,7.00
2023-02-12T07:59:22.683Z,7.00
2023-02-12T08:02:00.411Z,7.00
2023-02-12T08:04:30.497Z,7.00
2023-02-12T08:07:01.555Z,7.00
2023-02-12T08:09:31.168Z,7.00
2023-02-12T08:11:59.857Z,7.10
2023-02-12T08:14:29.807Z,7.10
2023-02-12T08:16:57.490Z,7.10
2023-02-12T08:19:32.466Z,7.10
2023-02-12T08:21:59.744Z,7.10
2023-02-12T08:24:31.985Z,7.10
2023-02-12T08:26:59.383Z,7.10
2023-02-12T08:29:29.798Z,7.10
2023-02-12T08:32:10.675Z,7.10
2023-02-12T08:34:37.898Z,7.10
2023-02-12T08:37:07.011Z,7.20
2023-02-12T08:39:34.588Z,7.20
2023-02-12T08:42:02.041Z,7.20
2023-02-12T08:44:31.044Z,7.20
2023-02-12T08:47:00.327Z,7.20
2023-02-12T08:49:30.935Z,7.20
2023-02-12T08:52:00.105Z,7.20
2023-02-12T08:54:31.773Z,7.20
2023-02-12T08:57:03.030Z,7.20
2023-02-12T08:59:56.572Z,7.30
2023-02-12T09:02:37.666Z,7.30
2023-02-12T09:05:05.004Z,7.30
2023-02-12T09:07:32.114Z,7.40
2023-02-12T09:09:59.224Z,7.40
2023-02-12T09:12:29.040Z,7.40
2023-02-12T09:14:55.963Z,7.40
2023-02-12T09:17:27.485Z,7.40
2023-02-12T09:19:58.434Z,7.40
2023-02-12T09:22:25.506Z,7.50
2023-02-12T09:24:52.651Z,7.50
2023-02-12T09:27:19.840Z,7.50
2023-02-12T09:29:49.439Z,7.50
2023-02-12T09:32:16.652Z,7.50
2023-02-12T09:34:46.718Z,7.50
2023-02-12T09:37:16.862Z,7.60
2023-02-12T09:39:51.160Z,7.60
2023-02-12T09:42:51.888Z,7.60
2023-02-12T09:45:29.584Z,7.60
2023-02-12T09:48:03.588Z,7.60
2023-02-12T09:50:42.502Z,7.60
2023-02-12T09:53:17.556Z,7.60
2023-02-12T09:55:50.859Z,7.70
2023-02-12T09:58:41.624Z,7.70
2023-02-12T10:01:22.851Z,7.70
2023-02-12T10:03:52.519Z,7.70
2023-02-12T10:06:28.891Z,7.70
2023-02-12T10:08:55.875Z,7.70
2023-02-12T10:11:54.109Z,7.80
2023-02-12T10:14:37.390Z,7.80
2023-02-12T10:18:02.733Z,7.80
2023-02-12T10:20:56.834Z,7.80
2023-02-12T10:23:31.052Z,7.90
2023-02-12T10:26:26.002Z,7.90
2023-02-12T10:29:11.672Z,7.90
2023-02-12T10:31:44.133Z,8.00
2023-02-12T10:34:37.718Z,8.00
2023-02-12T10:37:52.841Z,8.00
2023-02-12T10:40:32.824Z,8.00
2023-02-12T10:45:45.300Z,8.10
2023-02-12T10:48:37.197Z,8.10
2023-02-12T10:51:09.505Z,8.10
2023-02-12T10:53:45.551Z,8.10
2023-02-12T10:56:18.089Z,8.20
2023-02-12T10:58:53.732Z,8.20
2023-02-12T11:01:38.937Z,8.20
2023-02-12T11:04:26.444Z,8.20
2023-02-12T11:07:08.981Z,8.30
2023-02-12T11:09:47.874Z,8.30
2023-02-12T11:12:48.376Z,8.30
2023-02-12T11:15:22.382Z,8.40
2023-02-12T11:18:05.142Z,8.30
2023-02-12T11:20:48.803Z,8.40
2023-02-12T11:23:46.252Z,8.40
2023-02-12T11:26:19.360Z,8.50
2023-02-12T11:28:56.400Z,8.50
2023-02-12T11:31:37.140Z,8.50
2023-02-12T11:34:21.063Z,8.50
2023-02-12T11:36:50.648Z,8.60
2023-02-12T11:39:46.665Z,8.60
2023-02-12T11:42:24.370Z,8.60
2023-02-12T11:44:57.573Z,8.60
2023-02-12T11:47:36.488Z,8.60
2023-02-12T11:50:18.374Z,8.60
2023-02-12T11:52:54.898Z,8.70
2023-02-12T11:55:39.720Z,8.60
2023-02-12T11:58:27.716Z,8.70
2023-02-12T12:01:12.375Z,8.70
2023-02-12T12:03:39.522Z,8.70
2023-02-12T12:06:22.028Z,8.70
2023-02-12T12:09:03.735Z,8.70
2023-02-12T12:12:08.224Z,8.70
2023-02-12T12:14:57.516Z,8.70
2023-02-12T12:17:58.989Z,8.70
2023-02-12T12:20:32.120Z,8.80
2023-02-12T12:23:30.042Z,8.80
2023-02-12T12:26:04.851Z,8.80
2023-02-12T12:29:03.023Z,8.80
2023-02-12T12:31:44.361Z,8.80
2023-02-12T12:34:22.650Z,8.80
2023-02-12T12:37:29.889Z,8.80
2023-02-12T12:40:05.985Z,8.80
2023-02-12T12:42:33.444Z,8.80
2023-02-12T12:45:31.542Z,8.90
2023-02-12T12:48:22.732Z,8.90
2023-02-12T12:51:11.279Z,8.80
2023-02-12T12:53:58.241Z,8.80
2023-02-12T12:56:53.737Z,8.80
2023-02-12T12:59:34.721Z,8.80
2023-02-12T13:02:32.775Z,8.90
2023-02-12T13:05:18.685Z,8.80
2023-02-12T13:08:01.282Z,8.80
2023-02-12T13:10:51.377Z,8.80
2023-02-12T13:13:23.538Z,8.80
2023-02-12T13:15:59.918Z,8.90
2023-02-12T13:18:45.249Z,8.90
2023-02-12T13:21:18.406Z,8.90
2023-02-12T13:23:55.754Z,8.90
2023-02-12T13:26:33.592Z,8.90
2023-02-12T13:29:25.479Z,8.90
2023-02-12T13:32:03.875Z,8.90
2023-02-12T13:34:34.387Z,8.80
2023-02-12T13:37:03.228Z,8.80
2023-02-12T13:39:40.467Z,8.90
2023-02-12T13:42:39.279Z,8.90
2023-02-12T13:45:30.804Z,8.90
2023-02-12T13:48:28.216Z,8.90
2023-02-12T13:51:04.816Z,8.90
2023-02-12T13:53:53.045Z,8.90
2023-02-12T13:56:38.086Z,8.90
2023-02-12T13:59:30.787Z,8.90
2023-02-12T14:04:59.965Z,8.90
2023-02-12T14:08:04.260Z,9.00
2023-02-12T14:11:03.839Z,9.00
2023-02-12T14:13:56.756Z,8.90
2023-02-12T14:16:30.734Z,8.90
2023-02-12T14:19:35.320Z,9.00
2023-02-12T14:22:27.492Z,9.00
2023-02-12T14:24:59.544Z,8.90
2023-02-12T14:27:46.827Z,8.90
2023-02-12T14:30:16.803Z,8.90
2023-02-12T14:33:05.615Z,9.00
2023-02-12T14:35:40.054Z,9.00
2023-02-12T14:38:19.982Z,8.90
2023-02-12T14:40:55.711Z,8.90
2023-02-12T14:44:02.528Z,8.90
2023-02-12T14:50:28.457Z,8.80
2023-02-12T14:53:15.273Z,8.80
2023-02-12T14:53:39.152Z,8.80
2023-02-12T14:56:19.700Z,8.80
2023-02-12T14:58:50.423Z,8.80
2023-02-12T15:01:19.494Z,8.80
2023-02-12T15:03:52.012Z,8.80
2023-02-12T15:06:43.109Z,8.80
2023-02-12T15:09:17.577Z,8.80
2023-02-12T15:11:54.398Z,8.80
2023-02-12T15:14:31.029Z,8.80
2023-02-12T15:17:19.187Z,8.70
2023-02-12T15:20:27.261Z,8.70
2023-02-12T15:22:55.532Z,8.80
2023-02-12T15:25:31.881Z,8.70
2023-02-12T15:28:26.297Z,8.70
2023-02-12T15:30:56.331Z,8.70
2023-02-12T15:33:31.342Z,8.80
2023-02-12T15:36:03.796Z,8.70
2023-02-12T15:38:41.799Z,8.70
2023-02-12T15:41:23.426Z,8.70
2023-02-12T15:44:21.739Z,8.70
2023-02-12T15:47:16.358Z,8.70
2023-02-12T15:49:49.161Z,8.70
2023-02-12T15:52:24.861Z,8.70
2023-02-12T15:54:52.520Z,8.70
2023-02-12T15:57:25.005Z,8.60
2023-02-12T16:01:00.181Z,8.60
2023-02-12T16:04:31.986Z,8.60
2023-02-12T16:07:04.049Z,8.60
2023-02-12T16:13:07.949Z,8.60
2023-02-12T16:15:45.787Z,8.50
2023-02-12T16:18:26.489Z,8.50
2023-02-12T16:21:49.535Z,8.50
2023-02-12T16:24:34.306Z,8.50
2023-02-12T16:27:45.696Z,8.50
2023-02-12T16:30:32.094Z,8.50
2023-02-12T16:33:03.436Z,8.50
2023-02-12T16:35:35.751Z,8.40
2023-02-12T16:38:52.270Z,8.40
2023-02-12T16:41:23.639Z,8.40
2023-02-12T16:44:00.139Z,8.40
2023-02-12T16:46:44.100Z,8.40
2023-02-12T16:49:19.341Z,8.40
2023-02-12T16:51:47.820Z,8.40
2023-02-12T16:54:35.011Z,8.30
2023-02-12T16:57:02.273Z,8.30
2023-02-12T16:59:29.869Z,8.30
2023-02-12T17:02:03.194Z,8.30
2023-02-12T17:04:30.932Z,8.30
2023-02-12T17:06:58.517Z,8.30
2023-02-12T17:09:25.632Z,8.30
2023-02-12T17:11:52.791Z,8.30
2023-02-12T17:14:20.776Z,8.30
2023-02-12T17:16:57.960Z,8.30
2023-02-12T17:19:28.322Z,8.30
2023-02-12T17:21:58.729Z,8.20
2023-02-12T17:24:28.208Z,8.20
2023-02-12T17:26:57.984Z,8.20
2023-02-12T17:29:27.331Z,8.20
2023-02-12T17:31:56.188Z,8.20
2023-02-12T17:34:27.500Z,8.20
2023-02-12T17:36:58.504Z,8.20
2023-02-12T17:39:26.842Z,8.20
2023-02-12T17:41:53.799Z,8.20
2023-02-12T17:44:22.869Z,8.20
2023-02-12T17:46:49.928Z,8.20
2023-02-12T17:49:17.143Z,8.20
2023-02-12T17:51:44.240Z,8.10
2023-02-12T17:54:11.265Z,8.10
2023-02-12T17:56:38.354Z,8.10
2023-02-12T17:59:05.393Z,8.10
2023-02-12T18:01:34.726Z,8.10
2023-02-12T18:04:01.975Z,8.10
2023-02-12T18:06:31.206Z,8.10
2023-02-12T18:09:01.276Z,8.10
2023-02-12T18:11:29.417Z,8.10
2023-02-12T18:13:58.060Z,8.00
2023-02-12T18:16:28.013Z,8.00
2023-02-12T18:18:57.252Z,8.00
2023-02-12T18:21:24.492Z,8.00
2023-02-12T18:23:54.125Z,8.00
2023-02-12T18:26:21.579Z,8.00
2023-02-12T18:28:49.086Z,8.00
2023-02-12T18:31:18.474Z,8.00
2023-02-12T18:33:45.758Z,8.00
2023-02-12T18:36:17.849Z,8.00
2023-02-12T18:38:55.213Z,8.00
2023-02-12T18:41:25.239Z,8.00
2023-02-12T18:43:52.597Z,8.00
2023-02-12T18:46:23.673Z,8.00
2023-02-12T18:48:51.495Z,8.00
2023-02-12T18:51:22.888Z,8.00
2023-02-12T18:54:01.658Z,7.90
2023-02-12T18:56:33.324Z,8.00
2023-02-12T18:59:02.748Z,8.00
2023-02-12T19:01:32.497Z,7.90
2023-02-12T19:04:01.667Z,7.90
2023-02-12T19:06:35.373Z,7.90
2023-02-12T19:09:05.273Z,7.90
2023-02-12T19:11:36.192Z,7.90
2023-02-12T19:14:03.959Z,7.90
2023-02-12T19:16:32.955Z,7.90
2023-02-12T19:19:03.842Z,7.90
2023-02-12T19:21:31.178Z,7.90
2023-02-12T19:24:00.744Z,7.90
2023-02-12T19:26:29.586Z,7.90
2023-02-12T19:29:00.071Z,7.90
2023-02-12T19:31:30.786Z,7.90
2023-02-12T19:34:01.768Z,7.90
2023-02-12T19:36:34.465Z,7.90
2023-02-12T19:39:30.450Z,7.90
2023-02-12T19:41:59.062Z,7.80
2023-02-12T19:44:36.559Z,7.80
2023-02-12T19:47:13.657Z,7.80
2023-02-12T19:49:48.404Z,7.90
2023-02-12T19:52:30.919Z,7.90
2023-02-12T19:55:08.908Z,7.80
2023-02-12T19:57:59.186Z,7.90
2023-02-12T20:00:35.577Z,7.90
2023-02-12T20:03:09.686Z,7.80
2023-02-12T20:05:57.170Z,7.80
2023-02-12T20:09:18.181Z,7.80
2023-02-12T20:12:14.832Z,7.80
2023-02-12T20:14:57.218Z,7.80
2023-02-12T20:17:42.313Z,7.80
2023-02-12T20:20:17.536Z,7.80
2023-02-12T20:23:09.107Z,7.80
2023-02-12T20:25:54.934Z,7.80
2023-02-12T20:28:36.632Z,7.80
2023-02-12T20:31:28.076Z,7.80
2023-02-12T20:34:03.347Z,7.80
2023-02-12T20:36:46.410Z,7.80
2023-02-12T20:39:28.816Z,7.80
2023-02-12T20:41:56.875Z,7.70
2023-02-12T20:44:57.492Z,7.80
2023-02-12T20:47:33.376Z,7.80
2023-02-12T20:50:15.413Z,7.80
2023-02-12T20:53:02.485Z,7.80
2023-02-12T20:55:38.395Z,7.80
2023-02-12T20:58:06.515Z,7.80
2023-02-12T21:00:38.141Z,7.80
2023-02-12T21:03:33.952Z,7.70
2023-02-12T21:06:23.613Z,7.70
2023-02-12T21:12:00.582Z,7.70
2023-02-12T21:14:40.822Z,7.70
2023-02-12T21:17:30.288Z,7.70
2023-02-12T21:23:11.687Z,7.70
2023-02-12T21:25:39.230Z,7.70
2023-02-12T21:28:13.114Z,7.70
2023-02-12T21:30:47.259Z,7.70
2023-02-12T21:33:17.882Z,7.70
2023-02-12T21:35:45.676Z,7.70
2023-02-12T21:38:17.732Z,7.70
2023-02-12T21:40:48.107Z,7.70
2023-02-12T21:43:15.642Z,7.70
2023-02-12T21:45:58.933Z,7.70
2023-02-12T21:48:26.620Z,7.70
2023-02-12T21:50:55.632Z,7.70
2023-02-12T21:53:23.180Z,7.70
2023-02-12T21:55:50.803Z,7.70
2023-02-12T21:58:19.423Z,7.60
2023-02-12T22:00:50.896Z,7.60
2023-02-12T22:03:21.038Z,7.60
2023-02-12T22:05:49.952Z,7.60
2023-02-12T22:08:17.502Z,7.60
2023-02-12T22:11:13.730Z,7.60
2023-02-12T22:13:44.411Z,7.60
2023-02-12T22:16:17.006Z,7.60
2023-02-12T22:18:49.095Z,7.60
2023-02-12T22:21:17.706Z,7.60
2023-02-12T22:23:45.947Z,7.60
2023-02-12T22:26:19.144Z,7.50
2023-02-12T22:28:57.577Z,7.50
2023-02-12T22:31:43.517Z,7.60
2023-02-12T22:34:23.952Z,7.60
2023-02-12T22:39:36.747Z,7.60
2023-02-12T22:42:04.295Z,7.60
2023-02-12T22:44:31.835Z,7.60
2023-02-12T22:47:02.666Z,7.50
2023-02-12T22:49:30.680Z,7.60
2023-02-12T22:51:58.023Z,7.60
2023-02-12T22:54:25.380Z,7.60
2023-02-12T22:56:53.056Z,7.50
2023-02-12T22:59:20.366Z,7.50
2023-02-12T23:01:47.677Z,7.50
2023-02-12T23:04:16.897Z,7.50
2023-02-12T23:06:44.906Z,7.50
2023-02-12T23:09:15.261Z,7.50
2023-02-12T23:11:42.691Z,7.50
2023-02-12T23:14:09.999Z,7.40
2023-02-12T23:16:37.294Z,7.40
2023-02-12T23:19:04.602Z,7.40
2023-02-12T23:21:35.181Z,7.40
2023-02-12T23:24:02.301Z,7.40
2023-02-12T23:26:32.482Z,7.40
2023-02-12T23:29:05.578Z,7.40
2023-02-12T23:31:35.826Z,7.40
2023-02-12T23:34:03.482Z,7.40
2023-02-12T23:36:30.936Z,7.40
2023-02-12T23:38:59.427Z,7.40
2023-02-12T23:41:26.567Z,7.40
2023-02-12T23:43:53.578Z,7.50
2023-02-12T23:46:20.708Z,7.40
2023-02-12T23:48:47.829Z,7.40
2023-02-12T23:51:14.742Z,7.40
2023-02-12T23:53:41.799Z,7.40
2023-02-12T23:56:09.105Z,7.40
2023-02-12T23:58:37.443Z,7.40
